sensor_id;sensor_type;location;lat;lon;timestamp;P1;durP1;ratioP1;P2;durP2;ratioP2
18425;SDS011;9340;48.756;9.226;2022-11-20T00:00:04;8.57;;;7.33;;
18425;SDS011;9340;48.756;9.226;2022-11-20T00:02:31;8.63;;;6.80;;
18425;SDS011;9340;48.756;9.226;2022-11-20T00:04:58;6.93;;;6.23;;
18425;SDS011;9340;48.756;9.226;2022-11-20T00:07:25;5.60;;;5.10;;
18425;SDS011;9340;48.756;9.226;2022-11-20T00:09:53;7.70;;;5.60;;
18425;SDS011;9340;48.756;9.226;2022-11-20T00:12:19;6.07;;;5.20;;
18425;SDS011;9340;48.756;9.226;2022-11-20T00:14:46;5.20;;;4.70;;
18425;SDS011;9340;48.756;9.226;2022-11-20T00:17:13;5.20;;;4.70;;
18425;SDS011;9340;48.756;9.226;2022-11-20T00:19:39;5.73;;;5.13;;
18425;SDS011;9340;48.756;9.226;2022-11-20T00:22:06;5.37;;;4.87;;
18425;SDS011;9340;48.756;9.226;2022-11-20T00:24:33;5.40;;;4.50;;
18425;SDS011;9340;48.756;9.226;2022-11-20T00:27:01;5.50;;;4.20;;
18425;SDS011;9340;48.756;9.226;2022-11-20T00:29:27;4.43;;;4.03;;
18425;SDS011;9340;48.756;9.226;2022-11-20T00:31:54;5.00;;;4.37;;
18425;SDS011;9340;48.756;9.226;2022-11-20T00:34:21;5.00;;;4.53;;
18425;SDS011;9340;48.756;9.226;2022-11-20T00:36:47;5.60;;;4.87;;
18425;SDS011;9340;48.756;9.226;2022-11-20T00:39:14;5.83;;;5.13;;
18425;SDS011;9340;48.756;9.226;2022-11-20T00:41:41;5.80;;;5.20;;
18425;SDS011;9340;48.756;9.226;2022-11-20T00:44:09;5.00;;;4.20;;
18425;SDS011;9340;48.756;9.226;2022-11-20T00:46:35;7.00;;;4.60;;
18425;SDS011;9340;48.756;9.226;2022-11-20T00:49:02;5.10;;;4.60;;
18425;SDS011;9340;48.756;9.226;2022-11-20T00:51:29;5.43;;;4.53;;
18425;SDS011;9340;48.756;9.226;2022-11-20T00:53:56;6.07;;;4.03;;
18425;SDS011;9340;48.756;9.226;2022-11-20T00:56:24;5.13;;;4.70;;
18425;SDS011;9340;48.756;9.226;2022-11-20T00:58:51;4.50;;;4.10;;
18425;SDS011;9340;48.756;9.226;2022-11-20T01:01:21;4.93;;;4.43;;
18425;SDS011;9340;48.756;9.226;2022-11-20T01:03:50;4.30;;;3.90;;
18425;SDS011;9340;48.756;9.226;2022-11-20T01:06:18;4.07;;;3.67;;
18425;SDS011;9340;48.756;9.226;2022-11-20T01:08:46;4.57;;;4.03;;
18425;SDS011;9340;48.756;9.226;2022-11-20T01:11:18;4.37;;;3.97;;
18425;SDS011;9340;48.756;9.226;2022-11-20T01:13:46;5.27;;;3.97;;
18425;SDS011;9340;48.756;9.226;2022-11-20T01:16:15;4.33;;;3.93;;
18425;SDS011;9340;48.756;9.226;2022-11-20T01:18:45;4.33;;;3.93;;
18425;SDS011;9340;48.756;9.226;2022-11-20T01:21:13;4.03;;;3.63;;
18425;SDS011;9340;48.756;9.226;2022-11-20T01:23:42;3.67;;;3.33;;
18425;SDS011;9340;48.756;9.226;2022-11-20T01:26:11;4.63;;;3.70;;
18425;SDS011;9340;48.756;9.226;2022-11-20T01:28:39;4.90;;;4.20;;
18425;SDS011;9340;48.756;9.226;2022-11-20T01:31:10;3.80;;;3.40;;
18425;SDS011;9340;48.756;9.226;2022-11-20T01:33:39;4.07;;;2.90;;
18425;SDS011;9340;48.756;9.226;2022-11-20T01:36:08;5.50;;;3.63;;
18425;SDS011;9340;48.756;9.226;2022-11-20T01:38:35;4.40;;;4.00;;
18425;SDS011;9340;48.756;9.226;2022-11-20T01:41:02;3.27;;;2.97;;
18425;SDS011;9340;48.756;9.226;2022-11-20T01:43:29;4.00;;;3.30;;
18425;SDS011;9340;48.756;9.226;2022-11-20T01:45:56;4.10;;;3.40;;
18425;SDS011;9340;48.756;9.226;2022-11-20T01:48:26;3.73;;;3.43;;
18425;SDS011;9340;48.756;9.226;2022-11-20T01:50:57;3.80;;;3.10;;
18425;SDS011;9340;48.756;9.226;2022-11-20T01:53:27;4.70;;;3.37;;
18425;SDS011;9340;48.756;9.226;2022-11-20T01:55:59;3.93;;;3.50;;
18425;SDS011;9340;48.756;9.226;2022-11-20T01:58:30;5.10;;;3.73;;
18425;SDS011;9340;48.756;9.226;2022-11-20T02:01:01;3.30;;;3.00;;
18425;SDS011;9340;48.756;9.226;2022-11-20T02:03:29;3.97;;;3.23;;
18425;SDS011;9340;48.756;9.226;2022-11-20T02:05:57;4.43;;;3.87;;
18425;SDS011;9340;48.756;9.226;2022-11-20T02:08:31;3.73;;;3.23;;
18425;SDS011;9340;48.756;9.226;2022-11-20T02:10:59;6.23;;;3.93;;
18425;SDS011;9340;48.756;9.226;2022-11-20T02:13:25;5.00;;;3.40;;
18425;SDS011;9340;48.756;9.226;2022-11-20T02:16:13;3.77;;;3.40;;
18425;SDS011;9340;48.756;9.226;2022-11-20T02:18:46;4.77;;;4.27;;
18425;SDS011;9340;48.756;9.226;2022-11-20T02:21:17;7.03;;;4.43;;
18425;SDS011;9340;48.756;9.226;2022-11-20T02:23:58;5.10;;;4.17;;
18425;SDS011;9340;48.756;9.226;2022-11-20T02:26:26;8.10;;;4.70;;
18425;SDS011;9340;48.756;9.226;2022-11-20T02:28:55;5.03;;;3.50;;
18425;SDS011;9340;48.756;9.226;2022-11-20T02:31:24;6.23;;;3.87;;
18425;SDS011;9340;48.756;9.226;2022-11-20T02:33:54;3.80;;;3.47;;
18425;SDS011;9340;48.756;9.226;2022-11-20T02:36:21;3.27;;;2.97;;
18425;SDS011;9340;48.756;9.226;2022-11-20T02:38:49;4.70;;;3.33;;
18425;SDS011;9340;48.756;9.226;2022-11-20T02:41:17;3.90;;;3.17;;
18425;SDS011;9340;48.756;9.226;2022-11-20T02:43:44;3.20;;;2.90;;
18425;SDS011;9340;48.756;9.226;2022-11-20T02:46:11;3.60;;;3.27;;
18425;SDS011;9340;48.756;9.226;2022-11-20T02:48:38;3.60;;;3.30;;
18425;SDS011;9340;48.756;9.226;2022-11-20T02:51:04;3.00;;;2.80;;
18425;SDS011;9340;48.756;9.226;2022-11-20T02:53:31;3.00;;;2.80;;
18425;SDS011;9340;48.756;9.226;2022-11-20T02:55:58;3.27;;;2.97;;
18425;SDS011;9340;48.756;9.226;2022-11-20T02:58:26;3.40;;;3.10;;
18425;SDS011;9340;48.756;9.226;2022-11-20T03:00:52;3.53;;;3.23;;
18425;SDS011;9340;48.756;9.226;2022-11-20T03:03:19;3.20;;;2.90;;
18425;SDS011;9340;48.756;9.226;2022-11-20T03:05:46;3.37;;;2.97;;
18425;SDS011;9340;48.756;9.226;2022-11-20T03:08:12;3.87;;;3.33;;
18425;SDS011;9340;48.756;9.226;2022-11-20T03:10:39;3.17;;;2.87;;
18425;SDS011;9340;48.756;9.226;2022-11-20T03:13:06;3.17;;;2.87;;
18425;SDS011;9340;48.756;9.226;2022-11-20T03:15:34;3.77;;;3.47;;
18425;SDS011;9340;48.756;9.226;2022-11-20T03:18:01;5.30;;;3.10;;
18425;SDS011;9340;48.756;9.226;2022-11-20T03:20:28;3.77;;;3.30;;
18425;SDS011;9340;48.756;9.226;2022-11-20T03:22:55;3.37;;;3.07;;
18425;SDS011;9340;48.756;9.226;2022-11-20T03:25:22;3.23;;;2.93;;
18425;SDS011;9340;48.756;9.226;2022-11-20T03:27:48;3.47;;;2.87;;
18425;SDS011;9340;48.756;9.226;2022-11-20T03:30:15;3.30;;;3.00;;
18425;SDS011;9340;48.756;9.226;2022-11-20T03:32:43;3.30;;;3.00;;
18425;SDS011;9340;48.756;9.226;2022-11-20T03:35:10;3.53;;;3.00;;
18425;SDS011;9340;48.756;9.226;2022-11-20T03:37:37;3.93;;;3.27;;
18425;SDS011;9340;48.756;9.226;2022-11-20T03:40:04;4.03;;;3.17;;
18425;SDS011;9340;48.756;9.226;2022-11-20T03:42:32;3.70;;;3.37;;
18425;SDS011;9340;48.756;9.226;2022-11-20T03:45:11;4.33;;;3.83;;
18425;SDS011;9340;48.756;9.226;2022-11-20T03:47:38;5.97;;;3.33;;
18425;SDS011;9340;48.756;9.226;2022-11-20T03:50:06;4.93;;;3.90;;
18425;SDS011;9340;48.756;9.226;2022-11-20T03:52:34;4.03;;;3.57;;
18425;SDS011;9340;48.756;9.226;2022-11-20T03:55:00;4.33;;;3.93;;
18425;SDS011;9340;48.756;9.226;2022-11-20T03:57:27;4.07;;;3.67;;
18425;SDS011;9340;48.756;9.226;2022-11-20T03:59:54;4.70;;;3.53;;
18425;SDS011;9340;48.756;9.226;2022-11-20T04:02:21;4.27;;;3.50;;
18425;SDS011;9340;48.756;9.226;2022-11-20T04:04:48;4.80;;;3.47;;
18425;SDS011;9340;48.756;9.226;2022-11-20T04:07:16;5.30;;;4.30;;
18425;SDS011;9340;48.756;9.226;2022-11-20T04:09:43;4.00;;;3.60;;
18425;SDS011;9340;48.756;9.226;2022-11-20T04:12:09;6.13;;;4.27;;
18425;SDS011;9340;48.756;9.226;2022-11-20T04:14:36;4.30;;;3.57;;
18425;SDS011;9340;48.756;9.226;2022-11-20T04:17:03;5.33;;;3.80;;
18425;SDS011;9340;48.756;9.226;2022-11-20T04:19:30;4.30;;;3.70;;
18425;SDS011;9340;48.756;9.226;2022-11-20T04:21:57;6.23;;;4.63;;
18425;SDS011;9340;48.756;9.226;2022-11-20T04:24:25;4.80;;;4.13;;
18425;SDS011;9340;48.756;9.226;2022-11-20T04:26:52;4.47;;;3.90;;
18425;SDS011;9340;48.756;9.226;2022-11-20T04:29:19;5.07;;;4.60;;
18425;SDS011;9340;48.756;9.226;2022-11-20T04:31:46;3.97;;;3.57;;
18425;SDS011;9340;48.756;9.226;2022-11-20T04:34:12;4.40;;;4.00;;
18425;SDS011;9340;48.756;9.226;2022-11-20T04:36:39;4.20;;;3.73;;
18425;SDS011;9340;48.756;9.226;2022-11-20T04:39:11;5.50;;;4.00;;
18425;SDS011;9340;48.756;9.226;2022-11-20T04:41:40;5.20;;;4.13;;
18425;SDS011;9340;48.756;9.226;2022-11-20T04:44:07;5.00;;;4.00;;
18425;SDS011;9340;48.756;9.226;2022-11-20T04:46:34;4.80;;;4.07;;
18425;SDS011;9340;48.756;9.226;2022-11-20T04:49:02;3.83;;;3.30;;
18425;SDS011;9340;48.756;9.226;2022-11-20T04:51:29;4.43;;;4.03;;
18425;SDS011;9340;48.756;9.226;2022-11-20T04:53:56;4.67;;;3.83;;
18425;SDS011;9340;48.756;9.226;2022-11-20T04:56:22;5.43;;;4.03;;
18425;SDS011;9340;48.756;9.226;2022-11-20T04:58:51;5.47;;;3.67;;
18425;SDS011;9340;48.756;9.226;2022-11-20T05:01:18;3.70;;;3.40;;
18425;SDS011;9340;48.756;9.226;2022-11-20T05:03:46;4.73;;;4.13;;
18425;SDS011;9340;48.756;9.226;2022-11-20T05:06:13;3.10;;;2.80;;
18425;SDS011;9340;48.756;9.226;2022-11-20T05:08:43;4.37;;;3.50;;
18425;SDS011;9340;48.756;9.226;2022-11-20T05:11:10;3.87;;;3.47;;
18425;SDS011;9340;48.756;9.226;2022-11-20T05:13:38;3.57;;;3.27;;
18425;SDS011;9340;48.756;9.226;2022-11-20T05:16:07;4.63;;;3.43;;
18425;SDS011;9340;48.756;9.226;2022-11-20T05:18:36;3.93;;;3.50;;
18425;SDS011;9340;48.756;9.226;2022-11-20T05:21:05;5.00;;;3.53;;
18425;SDS011;9340;48.756;9.226;2022-11-20T05:23:34;4.00;;;3.27;;
18425;SDS011;9340;48.756;9.226;2022-11-20T05:26:01;4.20;;;3.50;;
18425;SDS011;9340;48.756;9.226;2022-11-20T05:28:29;6.27;;;3.30;;
18425;SDS011;9340;48.756;9.226;2022-11-20T05:31:03;3.13;;;2.87;;
18425;SDS011;9340;48.756;9.226;2022-11-20T05:33:32;4.57;;;3.30;;
18425;SDS011;9340;48.756;9.226;2022-11-20T05:36:00;4.07;;;3.10;;
18425;SDS011;9340;48.756;9.226;2022-11-20T05:38:26;3.97;;;3.30;;
18425;SDS011;9340;48.756;9.226;2022-11-20T05:40:53;3.57;;;3.17;;
18425;SDS011;9340;48.756;9.226;2022-11-20T05:43:20;3.67;;;3.27;;
18425;SDS011;9340;48.756;9.226;2022-11-20T05:45:51;4.20;;;2.83;;
18425;SDS011;9340;48.756;9.226;2022-11-20T05:48:18;3.40;;;3.10;;
18425;SDS011;9340;48.756;9.226;2022-11-20T05:50:47;4.20;;;3.77;;
18425;SDS011;9340;48.756;9.226;2022-11-20T05:53:13;3.50;;;3.20;;
18425;SDS011;9340;48.756;9.226;2022-11-20T05:55:40;2.67;;;2.47;;
18425;SDS011;9340;48.756;9.226;2022-11-20T05:58:07;3.30;;;3.00;;
18425;SDS011;9340;48.756;9.226;2022-11-20T06:00:33;3.63;;;3.20;;
18425;SDS011;9340;48.756;9.226;2022-11-20T06:03:00;3.33;;;3.03;;
18425;SDS011;9340;48.756;9.226;2022-11-20T06:05:27;5.23;;;2.80;;
18425;SDS011;9340;48.756;9.226;2022-11-20T06:07:55;3.73;;;3.27;;
18425;SDS011;9340;48.756;9.226;2022-11-20T06:10:22;2.80;;;2.60;;
18425;SDS011;9340;48.756;9.226;2022-11-20T06:12:48;4.20;;;2.90;;
18425;SDS011;9340;48.756;9.226;2022-11-20T06:15:15;3.63;;;2.80;;
18425;SDS011;9340;48.756;9.226;2022-11-20T06:17:42;3.57;;;3.23;;
18425;SDS011;9340;48.756;9.226;2022-11-20T06:20:09;3.93;;;3.20;;
18425;SDS011;9340;48.756;9.226;2022-11-20T06:22:36;3.00;;;2.50;;
18425;SDS011;9340;48.756;9.226;2022-11-20T06:25:04;3.20;;;2.60;;
18425;SDS011;9340;48.756;9.226;2022-11-20T06:27:31;3.00;;;2.70;;
18425;SDS011;9340;48.756;9.226;2022-11-20T06:29:58;3.60;;;2.53;;
18425;SDS011;9340;48.756;9.226;2022-11-20T06:32:25;4.50;;;3.03;;
18425;SDS011;9340;48.756;9.226;2022-11-20T06:34:51;4.13;;;2.97;;
18425;SDS011;9340;48.756;9.226;2022-11-20T06:37:18;3.23;;;2.90;;
18425;SDS011;9340;48.756;9.226;2022-11-20T06:39:45;3.50;;;2.90;;
18425;SDS011;9340;48.756;9.226;2022-11-20T06:42:13;3.00;;;2.70;;
18425;SDS011;9340;48.756;9.226;2022-11-20T06:44:39;2.60;;;2.40;;
18425;SDS011;9340;48.756;9.226;2022-11-20T06:47:06;2.73;;;2.50;;
18425;SDS011;9340;48.756;9.226;2022-11-20T06:49:33;3.40;;;3.10;;
18425;SDS011;9340;48.756;9.226;2022-11-20T06:52:02;3.30;;;3.00;;
18425;SDS011;9340;48.756;9.226;2022-11-20T06:54:29;3.27;;;2.97;;
18425;SDS011;9340;48.756;9.226;2022-11-20T06:56:55;3.80;;;3.20;;
18425;SDS011;9340;48.756;9.226;2022-11-20T06:59:23;3.00;;;2.70;;
18425;SDS011;9340;48.756;9.226;2022-11-20T07:01:50;3.13;;;2.83;;
18425;SDS011;9340;48.756;9.226;2022-11-20T07:04:17;4.43;;;3.37;;
18425;SDS011;9340;48.756;9.226;2022-11-20T07:06:43;3.90;;;3.10;;
18425;SDS011;9340;48.756;9.226;2022-11-20T07:09:10;2.80;;;2.47;;
18425;SDS011;9340;48.756;9.226;2022-11-20T07:11:37;5.53;;;3.20;;
18425;SDS011;9340;48.756;9.226;2022-11-20T07:14:03;3.10;;;2.80;;
18425;SDS011;9340;48.756;9.226;2022-11-20T07:16:31;3.30;;;2.70;;
18425;SDS011;9340;48.756;9.226;2022-11-20T07:18:58;3.60;;;3.13;;
18425;SDS011;9340;48.756;9.226;2022-11-20T07:21:25;3.90;;;3.50;;
18425;SDS011;9340;48.756;9.226;2022-11-20T07:23:52;3.27;;;2.97;;
18425;SDS011;9340;48.756;9.226;2022-11-20T07:26:18;3.00;;;2.70;;
18425;SDS011;9340;48.756;9.226;2022-11-20T07:28:45;3.67;;;2.70;;
18425;SDS011;9340;48.756;9.226;2022-11-20T07:31:12;3.77;;;2.77;;
18425;SDS011;9340;48.756;9.226;2022-11-20T07:33:40;3.50;;;2.77;;
18425;SDS011;9340;48.756;9.226;2022-11-20T07:36:07;2.97;;;2.70;;
18425;SDS011;9340;48.756;9.226;2022-11-20T07:38:34;4.27;;;2.93;;
18425;SDS011;9340;48.756;9.226;2022-11-20T07:41:00;3.40;;;2.53;;
18425;SDS011;9340;48.756;9.226;2022-11-20T07:43:27;3.30;;;2.60;;
18425;SDS011;9340;48.756;9.226;2022-11-20T07:45:54;4.47;;;2.80;;
18425;SDS011;9340;48.756;9.226;2022-11-20T07:48:22;2.67;;;2.43;;
18425;SDS011;9340;48.756;9.226;2022-11-20T07:50:52;4.03;;;3.00;;
18425;SDS011;9340;48.756;9.226;2022-11-20T07:53:19;3.07;;;2.67;;
18425;SDS011;9340;48.756;9.226;2022-11-20T07:55:46;2.83;;;2.63;;
18425;SDS011;9340;48.756;9.226;2022-11-20T07:58:13;3.00;;;2.43;;
18425;SDS011;9340;48.756;9.226;2022-11-20T08:00:40;3.63;;;2.70;;
18425;SDS011;9340;48.756;9.226;2022-11-20T08:03:07;3.43;;;2.70;;
18425;SDS011;9340;48.756;9.226;2022-11-20T08:05:34;2.70;;;2.43;;
18425;SDS011;9340;48.756;9.226;2022-11-20T08:08:02;3.37;;;2.60;;
18425;SDS011;9340;48.756;9.226;2022-11-20T08:10:29;2.60;;;2.40;;
18425;SDS011;9340;48.756;9.226;2022-11-20T08:12:55;2.67;;;2.43;;
18425;SDS011;9340;48.756;9.226;2022-11-20T08:15:40;2.50;;;2.30;;
18425;SDS011;9340;48.756;9.226;2022-11-20T08:18:07;2.80;;;2.53;;
18425;SDS011;9340;48.756;9.226;2022-11-20T08:20:36;2.90;;;2.50;;
18425;SDS011;9340;48.756;9.226;2022-11-20T08:23:05;3.03;;;2.60;;
18425;SDS011;9340;48.756;9.226;2022-11-20T08:25:33;2.50;;;2.30;;
18425;SDS011;9340;48.756;9.226;2022-11-20T08:28:03;3.67;;;2.67;;
18425;SDS011;9340;48.756;9.226;2022-11-20T08:30:31;2.37;;;2.17;;
18425;SDS011;9340;48.756;9.226;2022-11-20T08:33:00;2.60;;;2.13;;
18425;SDS011;9340;48.756;9.226;2022-11-20T08:35:28;3.10;;;2.43;;
18425;SDS011;9340;48.756;9.226;2022-11-20T08:37:54;2.60;;;2.27;;
18425;SDS011;9340;48.756;9.226;2022-11-20T08:40:22;2.67;;;2.47;;
18425;SDS011;9340;48.756;9.226;2022-11-20T08:42:49;2.40;;;2.17;;
18425;SDS011;9340;48.756;9.226;2022-11-20T08:45:17;3.83;;;2.53;;
18425;SDS011;9340;48.756;9.226;2022-11-20T08:47:45;2.50;;;2.30;;
18425;SDS011;9340;48.756;9.226;2022-11-20T08:50:12;3.53;;;2.00;;
18425;SDS011;9340;48.756;9.226;2022-11-20T08:52:41;2.20;;;2.00;;
18425;SDS011;9340;48.756;9.226;2022-11-20T08:55:08;2.10;;;1.90;;
18425;SDS011;9340;48.756;9.226;2022-11-20T08:57:37;1.80;;;1.70;;
18425;SDS011;9340;48.756;9.226;2022-11-20T09:00:05;2.27;;;2.10;;
18425;SDS011;9340;48.756;9.226;2022-11-20T09:02:33;2.40;;;2.20;;
18425;SDS011;9340;48.756;9.226;2022-11-20T09:05:00;2.10;;;1.90;;
18425;SDS011;9340;48.756;9.226;2022-11-20T09:07:28;2.70;;;1.93;;
18425;SDS011;9340;48.756;9.226;2022-11-20T09:09:55;2.60;;;1.97;;
18425;SDS011;9340;48.756;9.226;2022-11-20T09:12:22;1.80;;;1.70;;
18425;SDS011;9340;48.756;9.226;2022-11-20T09:14:50;3.00;;;2.10;;
18425;SDS011;9340;48.756;9.226;2022-11-20T09:17:16;2.87;;;1.90;;
18425;SDS011;9340;48.756;9.226;2022-11-20T09:19:44;2.30;;;1.70;;
18425;SDS011;9340;48.756;9.226;2022-11-20T09:22:10;2.80;;;1.60;;
18425;SDS011;9340;48.756;9.226;2022-11-20T09:24:37;2.53;;;1.47;;
18425;SDS011;9340;48.756;9.226;2022-11-20T09:27:04;1.37;;;1.27;;
18425;SDS011;9340;48.756;9.226;2022-11-20T09:29:31;1.70;;;1.60;;
18425;SDS011;9340;48.756;9.226;2022-11-20T09:31:59;1.60;;;1.40;;
18425;SDS011;9340;48.756;9.226;2022-11-20T09:34:26;1.40;;;1.30;;
18425;SDS011;9340;48.756;9.226;2022-11-20T09:36:52;1.50;;;1.40;;
18425;SDS011;9340;48.756;9.226;2022-11-20T09:39:19;1.57;;;1.47;;
18425;SDS011;9340;48.756;9.226;2022-11-20T09:41:56;2.90;;;1.50;;
18425;SDS011;9340;48.756;9.226;2022-11-20T09:44:41;1.37;;;1.27;;
18425;SDS011;9340;48.756;9.226;2022-11-20T09:47:22;1.50;;;1.33;;
18425;SDS011;9340;48.756;9.226;2022-11-20T09:50:02;1.53;;;1.30;;
18425;SDS011;9340;48.756;9.226;2022-11-20T09:52:41;1.20;;;1.10;;
18425;SDS011;9340;48.756;9.226;2022-11-20T09:55:17;1.30;;;1.20;;
18425;SDS011;9340;48.756;9.226;2022-11-20T09:57:44;1.20;;;1.10;;
18425;SDS011;9340;48.756;9.226;2022-11-20T10:00:14;1.93;;;1.40;;
18425;SDS011;9340;48.756;9.226;2022-11-20T10:02:44;1.37;;;1.27;;
18425;SDS011;9340;48.756;9.226;2022-11-20T10:05:17;1.10;;;1.10;;
18425;SDS011;9340;48.756;9.226;2022-11-20T10:07:47;1.30;;;1.20;;
18425;SDS011;9340;48.756;9.226;2022-11-20T10:10:23;1.27;;;1.17;;
18425;SDS011;9340;48.756;9.226;2022-11-20T10:13:00;1.37;;;1.10;;
18425;SDS011;9340;48.756;9.226;2022-11-20T10:15:38;1.20;;;1.10;;
18425;SDS011;9340;48.756;9.226;2022-11-20T10:18:21;1.40;;;1.20;;
18425;SDS011;9340;48.756;9.226;2022-11-20T10:20:55;1.57;;;1.40;;
18425;SDS011;9340;48.756;9.226;2022-11-20T10:23:39;1.20;;;1.10;;
18425;SDS011;9340;48.756;9.226;2022-11-20T10:26:26;1.30;;;1.20;;
18425;SDS011;9340;48.756;9.226;2022-11-20T10:29:05;1.03;;;1.00;;
18425;SDS011;9340;48.756;9.226;2022-11-20T10:31:37;1.10;;;1.00;;
18425;SDS011;9340;48.756;9.226;2022-11-20T10:34:12;3.17;;;2.37;;
18425;SDS011;9340;48.756;9.226;2022-11-20T10:36:48;4.27;;;2.97;;
18425;SDS011;9340;48.756;9.226;2022-11-20T10:39:21;10.63;;;7.67;;
18425;SDS011;9340;48.756;9.226;2022-11-20T10:41:53;1.87;;;1.37;;
18425;SDS011;9340;48.756;9.226;2022-11-20T10:44:20;6.03;;;5.43;;
18425;SDS011;9340;48.756;9.226;2022-11-20T10:47:03;1.67;;;1.53;;
18425;SDS011;9340;48.756;9.226;2022-11-20T10:49:32;1.70;;;1.10;;
18425;SDS011;9340;48.756;9.226;2022-11-20T10:52:03;1.53;;;1.30;;
18425;SDS011;9340;48.756;9.226;2022-11-20T10:54:39;2.07;;;1.20;;
18425;SDS011;9340;48.756;9.226;2022-11-20T10:57:15;1.93;;;1.83;;
18425;SDS011;9340;48.756;9.226;2022-11-20T10:59:54;2.57;;;1.60;;
18425;SDS011;9340;48.756;9.226;2022-11-20T11:02:31;1.87;;;1.70;;
18425;SDS011;9340;48.756;9.226;2022-11-20T11:05:06;2.40;;;2.20;;
18425;SDS011;9340;48.756;9.226;2022-11-20T11:07:42;2.10;;;1.90;;
18425;SDS011;9340;48.756;9.226;2022-11-20T11:10:16;2.13;;;1.80;;
18425;SDS011;9340;48.756;9.226;2022-11-20T11:12:46;2.23;;;2.03;;
18425;SDS011;9340;48.756;9.226;2022-11-20T11:15:14;1.80;;;1.70;;
18425;SDS011;9340;48.756;9.226;2022-11-20T11:17:52;1.93;;;1.70;;
18425;SDS011;9340;48.756;9.226;2022-11-20T11:20:20;1.83;;;1.53;;
18425;SDS011;9340;48.756;9.226;2022-11-20T11:22:48;1.83;;;1.37;;
18425;SDS011;9340;48.756;9.226;2022-11-20T11:25:18;1.53;;;1.30;;
18425;SDS011;9340;48.756;9.226;2022-11-20T11:27:54;6.73;;;6.13;;
18425;SDS011;9340;48.756;9.226;2022-11-20T11:30:22;2.83;;;1.70;;
18425;SDS011;9340;48.756;9.226;2022-11-20T11:32:50;1.80;;;1.40;;
18425;SDS011;9340;48.756;9.226;2022-11-20T11:35:29;1.40;;;1.30;;
18425;SDS011;9340;48.756;9.226;2022-11-20T11:38:02;1.53;;;1.43;;
18425;SDS011;9340;48.756;9.226;2022-11-20T11:40:31;1.50;;;1.40;;
18425;SDS011;9340;48.756;9.226;2022-11-20T11:43:01;1.70;;;1.50;;
18425;SDS011;9340;48.756;9.226;2022-11-20T11:45:30;1.60;;;1.30;;
18425;SDS011;9340;48.756;9.226;2022-11-20T11:47:56;1.40;;;1.30;;
18425;SDS011;9340;48.756;9.226;2022-11-20T11:50:26;1.40;;;1.30;;
18425;SDS011;9340;48.756;9.226;2022-11-20T11:52:57;3.03;;;1.70;;
18425;SDS011;9340;48.756;9.226;2022-11-20T11:55:30;2.93;;;1.80;;
18425;SDS011;9340;48.756;9.226;2022-11-20T11:58:11;1.80;;;1.53;;
18425;SDS011;9340;48.756;9.226;2022-11-20T12:00:47;2.10;;;1.70;;
18425;SDS011;9340;48.756;9.226;2022-11-20T12:03:21;3.13;;;1.97;;
18425;SDS011;9340;48.756;9.226;2022-11-20T12:05:55;1.93;;;1.63;;
18425;SDS011;9340;48.756;9.226;2022-11-20T12:08:26;2.20;;;1.53;;
18425;SDS011;9340;48.756;9.226;2022-11-20T12:10:57;2.37;;;1.50;;
18425;SDS011;9340;48.756;9.226;2022-11-20T12:13:31;2.90;;;1.77;;
18425;SDS011;9340;48.756;9.226;2022-11-20T12:16:07;4.60;;;1.63;;
18425;SDS011;9340;48.756;9.226;2022-11-20T12:18:37;3.33;;;1.57;;
18425;SDS011;9340;48.756;9.226;2022-11-20T12:21:09;2.60;;;1.43;;
18425;SDS011;9340;48.756;9.226;2022-11-20T12:23:48;2.07;;;1.63;;
18425;SDS011;9340;48.756;9.226;2022-11-20T12:26:28;2.00;;;1.50;;
18425;SDS011;9340;48.756;9.226;2022-11-20T12:29:05;1.97;;;1.70;;
18425;SDS011;9340;48.756;9.226;2022-11-20T12:31:48;2.07;;;1.30;;
18425;SDS011;9340;48.756;9.226;2022-11-20T12:34:27;1.97;;;1.30;;
18425;SDS011;9340;48.756;9.226;2022-11-20T12:37:04;2.87;;;1.13;;
18425;SDS011;9340;48.756;9.226;2022-11-20T12:39:46;4.17;;;1.50;;
18425;SDS011;9340;48.756;9.226;2022-11-20T12:45:32;1.47;;;1.37;;
18425;SDS011;9340;48.756;9.226;2022-11-20T12:48:19;2.20;;;1.50;;
18425;SDS011;9340;48.756;9.226;2022-11-20T12:51:31;2.60;;;1.23;;
18425;SDS011;9340;48.756;9.226;2022-11-20T12:54:25;2.10;;;1.27;;
18425;SDS011;9340;48.756;9.226;2022-11-20T12:57:03;2.37;;;1.20;;
18425;SDS011;9340;48.756;9.226;2022-11-20T12:59:42;1.20;;;1.00;;
18425;SDS011;9340;48.756;9.226;2022-11-20T13:02:27;1.57;;;1.33;;
18425;SDS011;9340;48.756;9.226;2022-11-20T13:05:16;1.87;;;1.50;;
18425;SDS011;9340;48.756;9.226;2022-11-20T13:07:46;3.97;;;2.50;;
18425;SDS011;9340;48.756;9.226;2022-11-20T13:10:16;6.87;;;4.43;;
18425;SDS011;9340;48.756;9.226;2022-11-20T13:12:49;1.60;;;1.40;;
18425;SDS011;9340;48.756;9.226;2022-11-20T13:15:23;5.77;;;3.23;;
18425;SDS011;9340;48.756;9.226;2022-11-20T13:18:01;3.20;;;1.80;;
18425;SDS011;9340;48.756;9.226;2022-11-20T13:20:30;3.20;;;2.60;;
18425;SDS011;9340;48.756;9.226;2022-11-20T13:22:59;1.00;;;1.00;;
18425;SDS011;9340;48.756;9.226;2022-11-20T13:25:27;1.67;;;1.40;;
18425;SDS011;9340;48.756;9.226;2022-11-20T13:27:56;1.53;;;1.10;;
18425;SDS011;9340;48.756;9.226;2022-11-20T13:30:24;1.37;;;1.07;;
18425;SDS011;9340;48.756;9.226;2022-11-20T13:32:53;1.67;;;1.20;;
18425;SDS011;9340;48.756;9.226;2022-11-20T13:35:25;1.10;;;0.87;;
18425;SDS011;9340;48.756;9.226;2022-11-20T13:38:02;1.50;;;1.13;;
18425;SDS011;9340;48.756;9.226;2022-11-20T13:40:37;3.40;;;1.60;;
18425;SDS011;9340;48.756;9.226;2022-11-20T13:43:11;2.00;;;1.10;;
18425;SDS011;9340;48.756;9.226;2022-11-20T13:45:53;0.87;;;0.87;;
18425;SDS011;9340;48.756;9.226;2022-11-20T13:48:21;1.40;;;1.27;;
18425;SDS011;9340;48.756;9.226;2022-11-20T13:50:55;1.50;;;1.30;;
18425;SDS011;9340;48.756;9.226;2022-11-20T13:53:33;1.27;;;1.10;;
18425;SDS011;9340;48.756;9.226;2022-11-20T13:56:17;1.27;;;1.07;;
18425;SDS011;9340;48.756;9.226;2022-11-20T13:58:52;2.43;;;1.33;;
18425;SDS011;9340;48.756;9.226;2022-11-20T14:01:29;1.60;;;1.30;;
18425;SDS011;9340;48.756;9.226;2022-11-20T14:03:57;2.40;;;1.40;;
18425;SDS011;9340;48.756;9.226;2022-11-20T14:06:25;1.70;;;1.23;;
18425;SDS011;9340;48.756;9.226;2022-11-20T14:08:53;1.30;;;1.20;;
18425;SDS011;9340;48.756;9.226;2022-11-20T14:11:23;1.20;;;1.00;;
18425;SDS011;9340;48.756;9.226;2022-11-20T14:13:54;1.67;;;1.37;;
18425;SDS011;9340;48.756;9.226;2022-11-20T14:16:24;1.77;;;1.30;;
18425;SDS011;9340;48.756;9.226;2022-11-20T14:18:52;2.07;;;1.30;;
18425;SDS011;9340;48.756;9.226;2022-11-20T14:21:23;1.80;;;1.30;;
18425;SDS011;9340;48.756;9.226;2022-11-20T14:24:02;3.07;;;1.73;;
18425;SDS011;9340;48.756;9.226;2022-11-20T14:26:31;2.53;;;1.50;;
18425;SDS011;9340;48.756;9.226;2022-11-20T14:28:58;2.03;;;1.60;;
18425;SDS011;9340;48.756;9.226;2022-11-20T14:31:26;5.90;;;2.23;;
18425;SDS011;9340;48.756;9.226;2022-11-20T14:33:54;2.10;;;1.30;;
18425;SDS011;9340;48.756;9.226;2022-11-20T14:36:22;3.57;;;1.60;;
18425;SDS011;9340;48.756;9.226;2022-11-20T14:38:51;3.33;;;2.27;;
18425;SDS011;9340;48.756;9.226;2022-11-20T14:41:19;1.70;;;1.50;;
18425;SDS011;9340;48.756;9.226;2022-11-20T14:43:50;2.63;;;1.73;;
18425;SDS011;9340;48.756;9.226;2022-11-20T14:46:21;3.00;;;1.67;;
18425;SDS011;9340;48.756;9.226;2022-11-20T14:48:49;2.07;;;1.03;;
18425;SDS011;9340;48.756;9.226;2022-11-20T14:51:25;2.03;;;1.37;;
18425;SDS011;9340;48.756;9.226;2022-11-20T14:53:55;2.20;;;1.40;;
18425;SDS011;9340;48.756;9.226;2022-11-20T14:56:33;2.80;;;1.70;;
18425;SDS011;9340;48.756;9.226;2022-11-20T14:59:01;2.60;;;1.43;;
18425;SDS011;9340;48.756;9.226;2022-11-20T15:01:28;1.70;;;1.40;;
18425;SDS011;9340;48.756;9.226;2022-11-20T15:04:00;2.27;;;1.33;;
18425;SDS011;9340;48.756;9.226;2022-11-20T15:06:30;1.50;;;1.20;;
18425;SDS011;9340;48.756;9.226;2022-11-20T15:08:57;1.50;;;1.23;;
18425;SDS011;9340;48.756;9.226;2022-11-20T15:11:27;2.13;;;1.83;;
18425;SDS011;9340;48.756;9.226;2022-11-20T15:13:57;2.27;;;1.70;;
18425;SDS011;9340;48.756;9.226;2022-11-20T15:16:28;2.87;;;1.80;;
18425;SDS011;9340;48.756;9.226;2022-11-20T15:18:55;2.00;;;1.47;;